Time;durP1;ratioP1;P1;durP2;ratioP2;P2;SDS_P1;SDS_P2;PMS_P1;PMS_P2;Temp;Humidity;BMP_temperature;BMP_pressure;BME280_temperature;BME280_humidity;BME280_pressure;Samples;Min_cycle;Max_cycle;Signal;HPM_P1;HPM_P2
2023/10/31 00:01:51;;;;;;;5.93;2.40;;;10.50;99.90;;;;;;5071511;28;20068;-70
2023/10/31 00:04:17;;;;;;;6.65;2.17;;;10.50;99.90;;;;;;5071449;28;20055;-70
2023/10/31 00:06:45;;;;;;;7.05;2.20;;;10.80;99.90;;;;;;5070443;28;20040;-70
2023/10/31 00:09:10;;;;;;;7.40;2.47;;;10.80;99.90;;;;;;5071590;28;20488;-70
2023/10/31 00:11:37;;;;;;;5.95;2.38;;;10.50;99.90;;;;;;5071465;28;20069;-70
2023/10/31 00:14:03;;;;;;;6.45;3.03;;;10.50;99.90;;;;;;5072192;28;20051;-70
2023/10/31 00:16:29;;;;;;;8.63;3.97;;;10.50;99.90;;;;;;5070480;28;20059;-70
2023/10/31 00:18:57;;;;;;;10.75;5.28;;;10.50;99.90;;;;;;5071301;28;20098;-70
2023/10/31 00:21:22;;;;;;;9.75;5.22;;;10.50;99.90;;;;;;5070715;28;20051;-70
2023/10/31 00:23:49;;;;;;;10.70;4.80;;;10.50;99.90;;;;;;5070998;28;20458;-70
2023/10/31 00:26:15;;;;;;;10.63;4.93;;;10.50;99.90;;;;;;5072603;28;20037;-70
2023/10/31 00:28:41;;;;;;;7.63;3.83;;;10.50;99.90;;;;;;5070307;28;20053;-70
2023/10/31 00:31:08;;;;;;;11.98;4.82;;;10.50;99.90;;;;;;5071574;28;20056;-70
2023/10/31 00:33:34;;;;;;;7.47;3.58;;;10.50;99.90;;;;;;5070859;28;20539;-70
2023/10/31 00:36:00;;;;;;;9.48;3.22;;;10.50;99.90;;;;;;5071639;28;20553;-70
2023/10/31 00:38:26;;;;;;;9.32;2.75;;;10.50;99.90;;;;;;5076577;28;20124;-70
2023/10/31 00:40:52;;;;;;;10.32;2.83;;;10.60;99.90;;;;;;5075181;28;20450;-70
2023/10/31 00:43:17;;;;;;;9.30;2.50;;;10.50;99.90;;;;;;5074734;28;20048;-70
2023/10/31 00:45:43;;;;;;;8.63;2.47;;;10.40;99.90;;;;;;5074861;28;20080;-70
2023/10/31 00:48:08;;;;;;;8.15;2.30;;;10.50;99.90;;;;;;5074207;28;20048;-70
2023/10/31 00:50:34;;;;;;;11.63;1.90;;;10.40;99.90;;;;;;5075920;28;20032;-70
2023/10/31 00:53:00;;;;;;;8.80;1.70;;;10.40;99.90;;;;;;5075351;28;20094;-70
2023/10/31 00:55:25;;;;;;;10.05;1.83;;;10.40;99.90;;;;;;5074544;28;20060;-70
2023/10/31 00:57:51;;;;;;;8.10;1.80;;;10.40;99.90;;;;;;5074196;28;20488;-70
2023/10/31 01:00:17;;;;;;;11.63;1.55;;;10.50;99.90;;;;;;5074792;28;20052;-70
2023/10/31 01:02:42;;;;;;;7.35;1.73;;;10.30;99.90;;;;;;5073809;28;20075;-70
2023/10/31 01:05:08;;;;;;;6.28;1.65;;;10.40;99.90;;;;;;5074712;28;20098;-69
2023/10/31 01:07:37;;;;;;;8.55;1.95;;;10.70;99.90;;;;;;5074068;28;20075;-70
2023/10/31 01:10:04;;;;;;;5.65;1.60;;;10.30;99.90;;;;;;5073922;28;20080;-70
2023/10/31 01:12:30;;;;;;;12.15;1.90;;;10.30;99.90;;;;;;5075896;28;20048;-70
2023/10/31 01:14:56;;;;;;;10.00;1.90;;;10.20;99.90;;;;;;5074196;28;20040;-70
2023/10/31 01:17:22;;;;;;;11.38;2.10;;;10.20;99.90;;;;;;5074133;28;20487;-70
2023/10/31 01:19:48;;;;;;;12.75;1.80;;;10.20;99.90;;;;;;5074135;28;20040;-70
2023/10/31 01:22:13;;;;;;;7.32;2.05;;;10.30;99.90;;;;;;5074775;28;20121;-70
2023/10/31 01:24:39;;;;;;;9.57;2.15;;;10.30;99.90;;;;;;5074348;28;20566;-70
2023/10/31 01:27:05;;;;;;;8.77;1.92;;;10.30;99.90;;;;;;5074137;28;20048;-70
2023/10/31 01:29:30;;;;;;;5.38;1.70;;;10.20;99.90;;;;;;5074304;28;20044;-70
2023/10/31 01:31:56;;;;;;;10.77;2.30;;;10.20;99.90;;;;;;5073599;28;20036;-69
2023/10/31 01:34:22;;;;;;;8.55;1.92;;;10.20;99.90;;;;;;5074095;28;20036;-70
2023/10/31 01:36:47;;;;;;;6.65;2.10;;;10.40;99.90;;;;;;5073825;28;20036;-70
2023/10/31 01:39:13;;;;;;;9.20;1.83;;;10.20;99.90;;;;;;5073690;28;20489;-70
2023/10/31 01:41:42;;;;;;;11.35;2.33;;;10.20;99.90;;;;;;5073846;28;20053;-70
2023/10/31 01:44:07;;;;;;;7.93;2.30;;;10.20;99.90;;;;;;5074267;28;20083;-70
2023/10/31 01:46:33;;;;;;;10.60;1.92;;;10.30;99.90;;;;;;5073019;28;20227;-70
2023/10/31 01:48:59;;;;;;;9.63;1.88;;;10.30;99.90;;;;;;5072775;28;20045;-70
2023/10/31 01:51:29;;;;;;;8.80;2.03;;;10.30;99.90;;;;;;5073293;28;20044;-70
2023/10/31 01:53:55;;;;;;;8.90;1.67;;;10.20;99.90;;;;;;5073801;28;20055;-70
2023/10/31 01:56:21;;;;;;;10.02;1.90;;;10.20;99.90;;;;;;5074213;28;20048;-70
2023/10/31 01:58:49;;;;;;;8.45;2.10;;;10.20;99.90;;;;;;5074097;28;20048;-70
2023/10/31 02:01:15;;;;;;;6.05;1.60;;;10.20;99.90;;;;;;5074645;28;20525;-70
2023/10/31 02:03:41;;;;;;;11.43;2.00;;;10.20;99.90;;;;;;5073229;28;20056;-70
2023/10/31 02:06:06;;;;;;;8.85;2.28;;;10.20;99.90;;;;;;5074469;28;20054;-70
2023/10/31 02:08:33;;;;;;;7.40;2.10;;;10.20;99.90;;;;;;5073430;28;20048;-70
2023/10/31 02:10:58;;;;;;;10.88;2.35;;;10.20;99.90;;;;;;5073434;28;20420;-70
2023/10/31 02:13:24;;;;;;;12.18;2.22;;;10.30;99.90;;;;;;5073059;28;20041;-69
2023/10/31 02:15:50;;;;;;;11.70;2.00;;;10.20;99.90;;;;;;5073571;28;20044;-70
2023/10/31 02:18:16;;;;;;;9.95;2.40;;;10.40;99.90;;;;;;5074693;28;20484;-70
2023/10/31 02:20:41;;;;;;;11.00;2.70;;;10.20;99.90;;;;;;5073377;28;20044;-70
2023/10/31 02:23:07;;;;;;;10.93;2.33;;;10.20;99.90;;;;;;5073363;28;20434;-70
2023/10/31 02:25:33;;;;;;;8.65;2.25;;;10.50;99.90;;;;;;5072708;28;20044;-70
2023/10/31 02:27:59;;;;;;;12.95;2.33;;;10.30;99.90;;;;;;5072658;28;20047;-70
2023/10/31 02:30:24;;;;;;;10.65;2.35;;;10.50;99.90;;;;;;5072952;28;20040;-70
2023/10/31 02:32:50;;;;;;;7.93;2.10;;;10.20;99.90;;;;;;5072877;28;20582;-70
2023/10/31 02:35:17;;;;;;;14.85;2.88;;;10.20;99.90;;;;;;5072360;28;20094;-70
2023/10/31 02:37:44;;;;;;;8.02;2.97;;;10.70;99.90;;;;;;5071617;28;20049;-70
2023/10/31 02:40:10;;;;;;;9.68;3.00;;;10.20;99.90;;;;;;5073883;28;20049;-69
2023/10/31 02:42:39;;;;;;;11.25;2.70;;;10.30;99.90;;;;;;5072075;28;20049;-70
2023/10/31 02:45:05;;;;;;;13.00;2.50;;;10.50;99.90;;;;;;5072634;28;20056;-70
2023/10/31 02:47:31;;;;;;;6.88;2.05;;;10.30;99.90;;;;;;5072320;28;20055;-70
2023/10/31 02:49:56;;;;;;;10.27;2.25;;;10.30;99.90;;;;;;5072095;28;20040;-70
2023/10/31 02:52:22;;;;;;;9.32;2.22;;;10.40;99.90;;;;;;5072972;28;20048;-70
2023/10/31 02:54:48;;;;;;;7.03;2.22;;;10.30;99.90;;;;;;5071474;28;20082;-70
2023/10/31 02:57:15;;;;;;;6.43;1.98;;;10.30;99.90;;;;;;5073120;28;20044;-70
2023/10/31 02:59:41;;;;;;;8.23;2.05;;;10.50;99.90;;;;;;5071838;28;20048;-69
2023/10/31 03:02:07;;;;;;;9.02;2.00;;;10.70;99.90;;;;;;5071862;28;20056;-70
2023/10/31 03:04:32;;;;;;;9.00;1.90;;;10.40;99.90;;;;;;5073391;28;20056;-70
2023/10/31 03:06:58;;;;;;;10.82;1.90;;;10.40;99.90;;;;;;5073887;28;20044;-70
2023/10/31 03:09:24;;;;;;;8.07;1.70;;;10.40;99.90;;;;;;5072819;28;20480;-70
2023/10/31 03:11:49;;;;;;;9.30;1.63;;;10.40;99.90;;;;;;5072145;28;20041;-70
2023/10/31 03:14:15;;;;;;;6.18;1.88;;;10.30;99.90;;;;;;5072598;28;20051;-70
2023/10/31 03:16:40;;;;;;;7.75;1.85;;;10.40;99.90;;;;;;5071449;28;20583;-70
2023/10/31 03:19:07;;;;;;;10.07;2.05;;;10.40;99.90;;;;;;5072369;28;20048;-70
2023/10/31 03:21:33;;;;;;;12.90;1.85;;;10.40;99.90;;;;;;5072312;28;20049;-70
2023/10/31 03:23:59;;;;;;;9.07;1.80;;;10.40;99.90;;;;;;5071546;28;20503;-69
2023/10/31 03:26:27;;;;;;;7.95;1.45;;;10.50;99.90;;;;;;5072464;28;20052;-69
2023/10/31 03:28:57;;;;;;;7.55;1.42;;;10.50;99.90;;;;;;5071492;28;20102;-70
2023/10/31 03:31:23;;;;;;;7.00;1.30;;;10.50;99.90;;;;;;5071610;28;20040;-69
2023/10/31 03:33:49;;;;;;;5.82;1.33;;;10.60;99.90;;;;;;5071675;28;20050;-69
2023/10/31 03:36:14;;;;;;;8.32;1.42;;;10.40;99.90;;;;;;5071570;28;20044;-70
2023/10/31 03:38:40;;;;;;;5.07;1.50;;;10.40;99.90;;;;;;5070591;28;20151;-69
2023/10/31 03:41:06;;;;;;;6.50;1.20;;;10.60;99.90;;;;;;5072315;28;20453;-69
2023/10/31 03:43:32;;;;;;;5.70;1.20;;;10.40;99.90;;;;;;5071557;28;20048;-70
2023/10/31 03:45:57;;;;;;;5.10;1.30;;;10.30;99.90;;;;;;5072459;28;20041;-69
2023/10/31 03:48:23;;;;;;;4.45;1.00;;;10.30;99.90;;;;;;5071636;28;20041;-70
2023/10/31 03:50:50;;;;;;;3.70;0.98;;;10.90;99.90;;;;;;5071123;28;20147;-70
2023/10/31 03:53:16;;;;;;;3.80;0.90;;;10.60;99.90;;;;;;5070959;28;20060;-70
2023/10/31 03:55:41;;;;;;;4.60;1.15;;;10.20;99.90;;;;;;5071308;28;20396;-70
2023/10/31 03:58:07;;;;;;;5.13;1.20;;;10.20;99.90;;;;;;5070920;28;20143;-70
2023/10/31 04:00:33;;;;;;;5.72;1.48;;;10.30;99.90;;;;;;5071195;28;20045;-70
2023/10/31 04:02:59;;;;;;;4.78;1.48;;;10.30;99.90;;;;;;5088220;28;20095;-70
2023/10/31 04:05:24;;;;;;;5.68;1.60;;;10.30;99.90;;;;;;5070459;28;20067;-70
2023/10/31 04:07:50;;;;;;;6.00;1.50;;;10.30;99.90;;;;;;5088299;28;20843;-70
2023/10/31 04:10:17;;;;;;;4.88;1.15;;;10.40;99.90;;;;;;5072353;28;20055;-70
2023/10/31 04:12:52;;;;;;;3.83;1.00;;;10.40;99.90;;;;;;5070383;28;20040;-70
2023/10/31 04:15:18;;;;;;;4.15;0.98;;;10.70;99.90;;;;;;5071841;28;20060;-70
2023/10/31 04:17:44;;;;;;;6.13;1.00;;;10.40;99.90;;;;;;5071281;28;20133;-70
2023/10/31 04:20:10;;;;;;;9.93;1.27;;;10.30;99.90;;;;;;5072106;28;20082;-70
2023/10/31 04:22:35;;;;;;;5.00;1.30;;;10.40;99.90;;;;;;5071096;28;20071;-70
2023/10/31 04:25:01;;;;;;;5.65;1.13;;;10.50;99.90;;;;;;5070220;28;20573;-70
2023/10/31 04:27:27;;;;;;;6.78;1.33;;;10.50;99.90;;;;;;5069910;28;20037;-69
2023/10/31 04:29:52;;;;;;;6.03;1.20;;;10.40;99.90;;;;;;5070985;28;20041;-70
2023/10/31 04:32:18;;;;;;;5.03;1.50;;;10.50;99.90;;;;;;5071257;28;20032;-71
2023/10/31 04:34:44;;;;;;;7.05;1.20;;;10.50;99.90;;;;;;5087101;28;20110;-70
2023/10/31 04:37:09;;;;;;;6.30;2.33;;;10.70;99.90;;;;;;5070990;28;20094;-69
2023/10/31 04:39:35;;;;;;;3.88;1.48;;;10.60;99.90;;;;;;5070868;28;20380;-70
2023/10/31 04:42:01;;;;;;;4.07;1.25;;;10.50;99.90;;;;;;5070167;28;20111;-69
2023/10/31 04:44:26;;;;;;;7.85;1.38;;;10.60;99.90;;;;;;5072312;28;20040;-70
2023/10/31 04:46:52;;;;;;;5.53;1.33;;;10.80;99.90;;;;;;5072170;28;20485;-70
2023/10/31 04:49:17;;;;;;;5.97;1.30;;;10.50;99.90;;;;;;5070423;28;20507;-70
2023/10/31 04:51:43;;;;;;;5.65;1.13;;;10.50;99.90;;;;;;5071293;28;20062;-70
2023/10/31 04:54:09;;;;;;;9.13;1.48;;;10.50;99.90;;;;;;5088012;28;20396;-70
2023/10/31 04:56:34;;;;;;;6.90;1.23;;;10.50;99.90;;;;;;5069977;28;20135;-70
2023/10/31 04:59:00;;;;;;;8.43;1.55;;;10.60;99.90;;;;;;5071812;28;20377;-70
2023/10/31 05:01:26;;;;;;;9.48;1.50;;;10.50;99.90;;;;;;5070849;28;20037;-70
2023/10/31 05:03:57;;;;;;;6.45;1.55;;;10.60;99.90;;;;;;5070579;28;20048;-70
2023/10/31 05:06:23;;;;;;;7.45;2.05;;;10.70;99.90;;;;;;5085305;28;20404;-70
2023/10/31 05:08:49;;;;;;;6.90;2.63;;;10.50;99.90;;;;;;5069379;28;20040;-69
2023/10/31 05:11:18;;;;;;;6.13;1.75;;;10.50;99.90;;;;;;5071665;28;20044;-69
2023/10/31 05:13:44;;;;;;;6.13;1.40;;;10.60;99.90;;;;;;5070725;28;20475;-70
2023/10/31 05:16:13;;;;;;;11.98;1.50;;;10.60;99.90;;;;;;5070130;28;20051;-70
2023/10/31 05:18:39;;;;;;;10.30;2.03;;;10.60;99.90;;;;;;5070504;28;20048;-70
2023/10/31 05:21:05;;;;;;;7.43;1.60;;;10.60;99.90;;;;;;5070884;28;20048;-69
2023/10/31 05:23:31;;;;;;;8.65;1.35;;;10.60;99.90;;;;;;5070735;28;20041;-71
2023/10/31 05:25:57;;;;;;;6.97;1.67;;;10.60;99.90;;;;;;5073746;28;20652;-71
2023/10/31 05:28:23;;;;;;;9.00;1.55;;;10.60;99.90;;;;;;5073301;28;20036;-70
2023/10/31 05:30:49;;;;;;;5.60;1.38;;;10.60;99.90;;;;;;5073231;28;20135;-70
2023/10/31 05:33:15;;;;;;;8.15;1.60;;;10.70;99.90;;;;;;5074651;28;20127;-70
2023/10/31 05:35:41;;;;;;;6.85;1.38;;;10.60;99.90;;;;;;5074344;28;20116;-70
2023/10/31 05:38:07;;;;;;;6.25;1.58;;;10.80;99.90;;;;;;5073124;28;20555;-70
2023/10/31 05:40:35;;;;;;;7.18;1.67;;;10.60;99.90;;;;;;5073651;28;20048;-72
2023/10/31 05:43:01;;;;;;;6.35;1.58;;;10.60;99.90;;;;;;5075460;28;20056;-71
2023/10/31 05:45:27;;;;;;;7.40;1.42;;;10.60;99.90;;;;;;5073090;28;20090;-70
2023/10/31 05:47:52;;;;;;;5.05;1.60;;;10.60;99.90;;;;;;5073924;28;20071;-71
2023/10/31 05:50:18;;;;;;;6.70;1.50;;;10.90;99.90;;;;;;5091170;28;20132;-70
2023/10/31 05:52:44;;;;;;;4.60;1.33;;;10.60;99.90;;;;;;5072520;28;20553;-70
2023/10/31 05:55:09;;;;;;;3.72;1.30;;;10.50;99.90;;;;;;5073763;28;20067;-70
2023/10/31 05:57:35;;;;;;;6.85;1.50;;;10.60;99.90;;;;;;5072966;28;20052;-70
2023/10/31 06:00:01;;;;;;;5.00;1.40;;;10.40;99.90;;;;;;5073517;28;20040;-71
2023/10/31 06:02:27;;;;;;;4.97;1.48;;;10.50;99.90;;;;;;5073233;28;20174;-72
2023/10/31 06:04:52;;;;;;;9.10;1.50;;;10.40;99.90;;;;;;5072069;28;20159;-73
2023/10/31 06:07:18;;;;;;;4.95;1.13;;;10.30;99.90;;;;;;5073253;28;20039;-74
2023/10/31 06:09:43;;;;;;;5.07;1.45;;;10.30;99.90;;;;;;5072844;28;20519;-75
2023/10/31 06:12:09;;;;;;;5.72;1.40;;;10.30;99.90;;;;;;5073786;28;20053;-76
2023/10/31 06:14:35;;;;;;;4.47;1.17;;;10.30;99.90;;;;;;5090370;28;20048;-74
2023/10/31 06:17:01;;;;;;;4.00;1.10;;;10.20;99.90;;;;;;5073240;28;20504;-74
2023/10/31 06:19:26;;;;;;;6.15;1.10;;;10.20;99.90;;;;;;5073374;28;20036;-79
2023/10/31 06:21:52;;;;;;;7.65;1.10;;;10.10;99.90;;;;;;5072766;28;20054;-72
2023/10/31 06:24:18;;;;;;;5.28;0.77;;;10.10;99.90;;;;;;5073370;28;20040;-72
2023/10/31 06:26:43;;;;;;;4.65;0.82;;;10.10;99.90;;;;;;5072019;28;20052;-71
2023/10/31 06:29:09;;;;;;;5.18;0.80;;;10.10;99.90;;;;;;5072878;28;20058;-72
2023/10/31 06:31:34;;;;;;;4.00;0.70;;;10.10;99.90;;;;;;5072776;28;20045;-71
2023/10/31 06:34:00;;;;;;;3.40;0.70;;;10.00;99.90;;;;;;5071951;28;20044;-72
2023/10/31 06:36:26;;;;;;;4.93;0.70;;;10.20;99.90;;;;;;5072447;28;20453;-71
2023/10/31 06:38:51;;;;;;;5.85;0.90;;;10.10;99.90;;;;;;5071453;28;20488;-72
2023/10/31 06:41:17;;;;;;;7.57;1.05;;;10.50;99.90;;;;;;5070645;28;20071;-72
2023/10/31 06:43:42;;;;;;;5.50;0.80;;;10.10;99.90;;;;;;5071587;28;20036;-75
2023/10/31 06:46:09;;;;;;;3.20;0.70;;;10.00;99.90;;;;;;5068995;28;21364;-71
2023/10/31 06:48:34;;;;;;;4.03;1.30;;;10.10;99.90;;;;;;5068307;28;20043;-70
2023/10/31 06:51:00;;;;;;;3.97;1.05;;;10.20;99.90;;;;;;5071064;28;20496;-71
2023/10/31 06:53:28;;;;;;;5.03;0.90;;;10.20;99.90;;;;;;5070654;28;20041;-71
2023/10/31 06:55:54;;;;;;;4.95;0.70;;;10.30;99.90;;;;;;5067377;28;20043;-72
2023/10/31 06:58:22;;;;;;;4.97;0.73;;;10.90;99.90;;;;;;5068081;28;20041;-72
2023/10/31 07:00:48;;;;;;;2.38;0.70;;;10.30;99.90;;;;;;5066881;28;20139;-71
2023/10/31 07:03:16;;;;;;;3.22;0.93;;;11.00;99.90;;;;;;5066720;28;20037;-70
2023/10/31 07:05:42;;;;;;;4.72;0.60;;;10.40;99.90;;;;;;5066638;28;20049;-71
2023/10/31 07:08:08;;;;;;;2.80;0.60;;;10.50;99.90;;;;;;5068625;28;20055;-69
2023/10/31 07:10:34;;;;;;;4.65;0.75;;;10.50;99.90;;;;;;5069560;28;20068;-67
2023/10/31 07:12:59;;;;;;;2.85;0.60;;;10.50;99.90;;;;;;5070379;28;20040;-71
2023/10/31 07:15:26;;;;;;;3.47;0.73;;;10.60;99.90;;;;;;5070025;28;20040;-70
2023/10/31 07:17:54;;;;;;;0.65;0.40;;;10.60;99.90;;;;;;5070103;28;20040;-71
2023/10/31 07:20:20;;;;;;;3.40;0.65;;;10.60;99.90;;;;;;5072214;28;20041;-71
2023/10/31 07:22:46;;;;;;;3.63;0.80;;;11.00;99.90;;;;;;5071348;28;20192;-69
2023/10/31 07:25:14;;;;;;;3.85;1.10;;;10.70;99.90;;;;;;5071441;28;20039;-73
2023/10/31 07:27:39;;;;;;;3.67;0.80;;;11.10;99.90;;;;;;5071664;28;20045;-72
2023/10/31 07:30:06;;;;;;;7.93;0.93;;;10.70;99.90;;;;;;5071295;28;20048;-72
2023/10/31 07:32:31;;;;;;;5.22;0.80;;;10.70;99.90;;;;;;5071815;28;20045;-72
2023/10/31 07:34:57;;;;;;;2.38;0.77;;;10.90;99.90;;;;;;5071699;28;20075;-72
2023/10/31 07:37:23;;;;;;;5.65;0.80;;;11.20;99.90;;;;;;5071495;28;20428;-72
2023/10/31 07:39:50;;;;;;;4.00;0.70;;;10.80;99.90;;;;;;5072835;28;20055;-72
2023/10/31 07:42:16;;;;;;;4.00;0.70;;;10.80;99.90;;;;;;5071542;28;20056;-71
2023/10/31 07:44:42;;;;;;;2.28;0.50;;;11.20;99.90;;;;;;5070442;28;20051;-71
2023/10/31 07:47:07;;;;;;;3.17;0.63;;;11.40;99.90;;;;;;5071130;28;20076;-71
2023/10/31 07:49:33;;;;;;;2.45;0.70;;;10.90;99.90;;;;;;5072445;28;20046;-70
2023/10/31 07:51:58;;;;;;;4.93;0.90;;;10.90;99.90;;;;;;5071144;28;20048;-72
2023/10/31 07:54:24;;;;;;;3.72;0.77;;;10.90;99.90;;;;;;5071239;28;20051;-72
2023/10/31 07:56:50;;;;;;;2.65;0.60;;;11.00;99.90;;;;;;5070467;28;20041;-71
2023/10/31 07:59:15;;;;;;;3.08;0.60;;;11.10;99.90;;;;;;5070702;28;20438;-71
2023/10/31 08:01:41;;;;;;;2.70;0.50;;;11.00;99.90;;;;;;5070489;28;20437;-71
2023/10/31 08:04:06;;;;;;;2.20;0.60;;;10.90;99.90;;;;;;5071298;28;20090;-71
2023/10/31 08:06:33;;;;;;;3.17;0.60;;;11.00;99.90;;;;;;5071804;28;20072;-72
2023/10/31 08:08:59;;;;;;;5.82;0.90;;;10.80;99.90;;;;;;5071671;28;20103;-72
2023/10/31 08:11:25;;;;;;;2.80;0.60;;;11.30;99.90;;;;;;5071008;28;20140;-72
2023/10/31 08:13:51;;;;;;;5.28;0.95;;;10.80;99.90;;;;;;5071085;28;20119;-72
2023/10/31 08:16:20;;;;;;;6.45;1.10;;;10.90;99.90;;;;;;5071984;28;20086;-72
2023/10/31 08:18:46;;;;;;;8.43;1.40;;;10.90;99.90;;;;;;5071216;28;20054;-71
2023/10/31 08:21:12;;;;;;;7.57;1.45;;;10.90;99.90;;;;;;5071207;28;20040;-71
2023/10/31 08:23:38;;;;;;;5.97;1.00;;;10.90;99.90;;;;;;5070451;28;20415;-72
2023/10/31 08:26:04;;;;;;;6.18;0.95;;;10.90;99.90;;;;;;5070429;28;20040;-72
2023/10/31 08:28:30;;;;;;;7.97;1.10;;;10.90;99.90;;;;;;5070882;28;20046;-72
2023/10/31 08:30:56;;;;;;;5.93;1.10;;;10.90;99.90;;;;;;5072291;28;20048;-72
2023/10/31 08:33:22;;;;;;;5.78;0.95;;;11.60;99.90;;;;;;5071064;28;20067;-72
2023/10/31 08:35:48;;;;;;;5.80;1.00;;;11.00;99.90;;;;;;5071203;28;20045;-72
2023/10/31 08:38:13;;;;;;;4.75;0.90;;;11.70;99.90;;;;;;5071155;28;20135;-73
2023/10/31 08:40:39;;;;;;;4.07;1.20;;;11.20;99.90;;;;;;5071113;28;20048;-73
2023/10/31 08:43:06;;;;;;;10.48;1.38;;;11.20;99.90;;;;;;5071117;28;20040;-72
2023/10/31 08:45:33;;;;;;;7.45;1.55;;;11.60;99.90;;;;;;5070840;28;20169;-72
2023/10/31 08:47:59;;;;;;;5.28;1.80;;;11.50;99.90;;;;;;5070527;28;20052;-72
2023/10/31 08:50:24;;;;;;;6.80;2.20;;;11.30;99.90;;;;;;5070965;28;20049;-73
2023/10/31 08:52:50;;;;;;;4.45;0.90;;;11.90;99.90;;;;;;5070801;28;20052;-73
2023/10/31 08:55:16;;;;;;;6.20;1.40;;;11.50;99.90;;;;;;5070366;28;20052;-72
2023/10/31 08:57:41;;;;;;;5.13;2.00;;;11.50;99.90;;;;;;5073133;28;20071;-72
2023/10/31 09:00:07;;;;;;;6.55;1.60;;;11.40;99.90;;;;;;5092064;28;20037;-72
2023/10/31 09:02:34;;;;;;;5.80;1.42;;;11.40;99.90;;;;;;5073495;28;20052;-72
2023/10/31 09:04:59;;;;;;;4.15;1.42;;;11.40;99.90;;;;;;5074678;28;20080;-72
2023/10/31 09:07:25;;;;;;;6.18;1.50;;;11.40;99.90;;;;;;5074387;28;20071;-72
2023/10/31 09:09:51;;;;;;;5.13;2.20;;;11.40;99.90;;;;;;5073670;28;20055;-72
2023/10/31 09:12:16;;;;;;;9.55;2.20;;;11.40;99.90;;;;;;5075073;28;20044;-72
2023/10/31 09:14:42;;;;;;;7.20;1.45;;;11.50;99.90;;;;;;5073903;28;20055;-72
2023/10/31 09:17:07;;;;;;;5.88;1.63;;;11.90;99.90;;;;;;5075849;28;20503;-72
2023/10/31 09:19:33;;;;;;;7.50;1.10;;;11.90;99.90;;;;;;5074306;28;20048;-71
2023/10/31 09:21:59;;;;;;;4.00;1.30;;;11.70;99.90;;;;;;5073323;28;20462;-71
2023/10/31 09:24:24;;;;;;;5.45;2.40;;;11.70;99.90;;;;;;5074183;28;20094;-71
2023/10/31 09:26:50;;;;;;;6.82;1.67;;;11.80;99.90;;;;;;5075419;28;20049;-71
2023/10/31 09:29:15;;;;;;;6.82;2.15;;;11.80;99.90;;;;;;5073842;28;20040;-71
2023/10/31 09:31:41;;;;;;;5.72;2.00;;;11.90;99.90;;;;;;5073393;28;20083;-71
2023/10/31 09:34:07;;;;;;;10.68;3.03;;;11.80;99.90;;;;;;5073843;28;20395;-71
2023/10/31 09:36:36;;;;;;;13.70;6.90;;;11.90;99.90;;;;;;5073146;28;20075;-71
2023/10/31 09:39:02;;;;;;;18.30;10.38;;;11.80;99.90;;;;;;5074258;28;20036;-71
2023/10/31 09:41:29;;;;;;;8.93;4.13;;;11.80;99.90;;;;;;5074292;28;20119;-71
2023/10/31 09:43:54;;;;;;;8.63;2.40;;;11.80;99.90;;;;;;5072941;28;20047;-71
2023/10/31 09:46:21;;;;;;;4.05;1.58;;;11.80;99.90;;;;;;5074352;28;20388;-71
2023/10/31 09:48:49;;;;;;;8.82;1.50;;;11.80;99.90;;;;;;5073499;28;20045;-71
2023/10/31 09:51:14;;;;;;;5.38;1.00;;;11.80;99.90;;;;;;5073183;28;20604;-71
2023/10/31 09:53:43;;;;;;;7.05;0.90;;;11.90;99.90;;;;;;5073527;28;20044;-71
2023/10/31 09:56:10;;;;;;;5.55;1.40;;;11.80;99.90;;;;;;5073881;28;20042;-71
2023/10/31 09:58:36;;;;;;;6.32;1.20;;;11.80;99.90;;;;;;5072516;28;20094;-71
2023/10/31 10:01:02;;;;;;;5.03;1.38;;;11.80;99.90;;;;;;5072729;28;20051;-72
2023/10/31 10:03:27;;;;;;;5.72;2.05;;;11.80;99.90;;;;;;5088373;28;20044;-72
2023/10/31 10:05:53;;;;;;;8.77;4.13;;;11.80;99.90;;;;;;5073805;28;20040;-71
2023/10/31 10:08:22;;;;;;;6.38;3.75;;;11.90;99.90;;;;;;5073004;28;20090;-71
2023/10/31 10:10:49;;;;;;;8.10;2.20;;;12.00;99.90;;;;;;5072481;28;20044;-72
2023/10/31 10:13:20;;;;;;;10.73;5.63;;;12.30;99.90;;;;;;5073389;28;20046;-71
2023/10/31 10:15:54;;;;;;;10.45;5.90;;;12.10;99.90;;;;;;5072229;28;20037;-72
2023/10/31 10:18:31;;;;;;;17.83;10.30;;;12.00;99.90;;;;;;5070380;28;20541;-71
2023/10/31 10:21:01;;;;;;;4.80;2.53;;;12.00;99.90;;;;;;5069347;28;20048;-71
2023/10/31 10:23:28;;;;;;;8.60;3.70;;;12.00;99.90;;;;;;5072210;28;20068;-72
2023/10/31 10:25:56;;;;;;;7.85;2.25;;;12.10;99.90;;;;;;5071784;28;20044;-72
2023/10/31 10:28:22;;;;;;;3.70;1.60;;;12.10;99.90;;;;;;5072855;28;20123;-72
2023/10/31 10:30:51;;;;;;;5.45;1.80;;;12.20;99.90;;;;;;5072494;28;20453;-72
2023/10/31 10:33:17;;;;;;;7.13;2.13;;;12.30;99.90;;;;;;5073057;28;20060;-71
2023/10/31 10:35:44;;;;;;;4.93;1.80;;;12.30;99.90;;;;;;5069582;28;20388;-72
2023/10/31 10:38:14;;;;;;;5.90;3.00;;;12.20;99.90;;;;;;5072497;28;20049;-71
2023/10/31 10:40:44;;;;;;;5.53;2.38;;;12.20;99.90;;;;;;5071541;28;20032;-72
2023/10/31 10:43:31;;;;;;;7.07;1.80;;;12.20;99.90;;;;;;5072245;28;20048;-72
2023/10/31 10:45:58;;;;;;;3.35;1.10;;;12.20;99.90;;;;;;5071566;28;20048;-71
2023/10/31 10:48:26;;;;;;;6.00;1.30;;;12.10;99.90;;;;;;5064752;28;20043;-73
2023/10/31 10:51:28;;;;;;;2.90;1.02;;;12.10;99.90;;;;;;5071695;28;20500;-73
2023/10/31 10:54:04;;;;;;;4.20;1.00;;;12.00;99.90;;;;;;5069045;28;20063;-73
2023/10/31 10:56:46;;;;;;;5.00;1.08;;;12.00;99.90;;;;;;5071756;28;20052;-73
2023/10/31 10:59:20;;;;;;;2.88;1.25;;;11.90;99.90;;;;;;5071941;28;20043;-72
2023/10/31 11:01:48;;;;;;;7.15;2.40;;;11.90;99.90;;;;;;5070748;28;20147;-71
2023/10/31 11:04:15;;;;;;;5.15;2.08;;;11.90;99.90;;;;;;5071856;28;20128;-70
2023/10/31 11:06:42;;;;;;;5.60;1.52;;;11.90;99.90;;;;;;5071539;28;20051;-70
2023/10/31 11:09:13;;;;;;;6.82;1.33;;;12.00;99.90;;;;;;5087382;28;20056;-70
2023/10/31 11:11:48;;;;;;;4.13;1.23;;;12.10;99.90;;;;;;5071624;28;20076;-71
2023/10/31 11:14:16;;;;;;;3.78;0.98;;;12.30;99.90;;;;;;5054294;28;20120;-71
2023/10/31 11:16:54;;;;;;;10.32;3.03;;;12.40;99.90;;;;;;5071278;28;20492;-72
2023/10/31 11:19:20;;;;;;;9.35;1.70;;;12.50;99.90;;;;;;5071583;28;20055;-72
2023/10/31 11:21:59;;;;;;;7.85;4.57;;;12.60;99.90;;;;;;5070734;28;20039;-72
2023/10/31 11:24:32;;;;;;;9.32;5.70;;;12.60;99.90;;;;;;5071419;28;20048;-71
2023/10/31 11:27:02;;;;;;;12.60;5.38;;;12.60;99.90;;;;;;5071433;28;20044;-71
2023/10/31 11:29:30;;;;;;;9.77;3.10;;;12.70;99.90;;;;;;5070654;28;20080;-71
2023/10/31 11:31:59;;;;;;;6.43;2.65;;;12.80;99.90;;;;;;5072755;28;20116;-71
2023/10/31 11:34:29;;;;;;;6.80;4.25;;;12.80;99.90;;;;;;5059439;28;20049;-71
2023/10/31 11:37:27;;;;;;;7.22;3.40;;;12.80;99.90;;;;;;5069506;28;20444;-70
2023/10/31 11:40:22;;;;;;;7.57;3.80;;;12.90;99.90;;;;;;5070996;28;20044;-71
2023/10/31 11:42:50;;;;;;;6.32;1.70;;;13.00;99.90;;;;;;5070137;28;20043;-72
2023/10/31 11:45:26;;;;;;;6.28;2.00;;;13.00;99.90;;;;;;5070994;28;20075;-71
2023/10/31 11:47:51;;;;;;;6.70;2.10;;;13.10;99.90;;;;;;5071178;28;20433;-74
2023/10/31 11:50:17;;;;;;;4.47;2.50;;;13.10;99.90;;;;;;5070276;28;20070;-73
2023/10/31 11:52:43;;;;;;;6.53;2.95;;;13.20;99.90;;;;;;5070682;28;20044;-73
2023/10/31 11:55:12;;;;;;;4.47;3.10;;;13.10;99.90;;;;;;5071184;28;20056;-73
2023/10/31 11:57:39;;;;;;;4.32;2.83;;;13.10;99.90;;;;;;5070167;28;20388;-73
2023/10/31 12:00:07;;;;;;;8.07;3.65;;;13.20;99.90;;;;;;5072212;28;20055;-73
2023/10/31 12:02:33;;;;;;;13.15;11.40;;;13.70;99.90;;;;;;5069933;28;20114;-72
2023/10/31 12:05:16;;;;;;;9.43;4.78;;;14.40;99.90;;;;;;5070014;28;20044;-72
2023/10/31 12:07:43;;;;;;;9.00;5.20;;;15.00;99.90;;;;;;5070745;28;20485;-73
2023/10/31 12:10:13;;;;;;;8.02;5.05;;;15.80;99.90;;;;;;5070954;28;20396;-72
2023/10/31 12:12:39;;;;;;;7.70;3.65;;;17.20;99.90;;;;;;5070447;28;20054;-72
2023/10/31 12:15:08;;;;;;;6.00;3.20;;;17.10;99.90;;;;;;5071502;28;20414;-72
2023/10/31 12:17:34;;;;;;;5.63;2.28;;;16.40;99.90;;;;;;5070716;28;20078;-73
2023/10/31 12:20:08;;;;;;;2.80;1.08;;;15.90;99.90;;;;;;5071237;28;20090;-71
2023/10/31 12:22:34;;;;;;;2.80;0.95;;;15.40;99.90;;;;;;5072492;28;20076;-72
2023/10/31 12:25:04;;;;;;;5.10;1.25;;;15.10;99.90;;;;;;5071869;28;20048;-72
2023/10/31 12:27:47;;;;;;;3.47;1.38;;;14.80;99.90;;;;;;5070848;28;20041;-70
2023/10/31 12:30:17;;;;;;;9.50;4.78;;;14.40;99.90;;;;;;5067457;28;20056;-71
2023/10/31 12:32:44;;;;;;;5.50;1.65;;;14.20;99.90;;;;;;5071188;28;20045;-71
2023/10/31 12:35:19;;;;;;;5.68;1.60;;;14.20;99.90;;;;;;5070964;28;20376;-73
2023/10/31 12:37:49;;;;;;;6.13;1.23;;;14.50;99.90;;;;;;5074238;28;20053;-73
2023/10/31 12:40:20;;;;;;;6.45;1.30;;;14.40;99.90;;;;;;5074762;28;20056;-72
2023/10/31 12:42:47;;;;;;;22.35;11.43;;;14.30;99.90;;;;;;5074383;28;20052;-70
2023/10/31 12:45:14;;;;;;;26.92;14.90;;;14.20;99.90;;;;;;5070563;28;20052;-71